sensor_id;sensor_type;location;lat;lon;timestamp;P1;durP1;ratioP1;P2;durP2;ratioP2
3207;SDS011;1616;52.394;9.756;2022-11-20T00:01:14;23.40;;;12.40;;
3207;SDS011;1616;52.394;9.756;2022-11-20T00:03:41;21.67;;;11.60;;
3207;SDS011;1616;52.394;9.756;2022-11-20T00:06:08;22.43;;;13.13;;
3207;SDS011;1616;52.394;9.756;2022-11-20T00:08:38;21.80;;;12.93;;
3207;SDS011;1616;52.394;9.756;2022-11-20T00:11:05;20.60;;;13.20;;
3207;SDS011;1616;52.394;9.756;2022-11-20T00:13:36;21.57;;;11.90;;
3207;SDS011;1616;52.394;9.756;2022-11-20T00:16:02;26.50;;;12.50;;
3207;SDS011;1616;52.394;9.756;2022-11-20T00:18:30;21.07;;;12.57;;
3207;SDS011;1616;52.394;9.756;2022-11-20T00:21:05;23.50;;;11.43;;
3207;SDS011;1616;52.394;9.756;2022-11-20T00:23:33;31.03;;;16.40;;
3207;SDS011;1616;52.394;9.756;2022-11-20T00:26:03;41.17;;;17.93;;
3207;SDS011;1616;52.394;9.756;2022-11-20T00:28:29;27.77;;;15.17;;
3207;SDS011;1616;52.394;9.756;2022-11-20T00:31:05;30.20;;;14.30;;
3207;SDS011;1616;52.394;9.756;2022-11-20T00:33:33;28.93;;;13.83;;
3207;SDS011;1616;52.394;9.756;2022-11-20T00:36:03;26.77;;;13.30;;
3207;SDS011;1616;52.394;9.756;2022-11-20T00:38:31;25.20;;;13.53;;
3207;SDS011;1616;52.394;9.756;2022-11-20T00:40:58;17.30;;;11.50;;
3207;SDS011;1616;52.394;9.756;2022-11-20T00:43:25;21.40;;;11.20;;
3207;SDS011;1616;52.394;9.756;2022-11-20T00:46:01;18.20;;;11.27;;
3207;SDS011;1616;52.394;9.756;2022-11-20T00:48:41;17.93;;;11.87;;
3207;SDS011;1616;52.394;9.756;2022-11-20T00:51:08;20.43;;;11.00;;
3207;SDS011;1616;52.394;9.756;2022-11-20T00:53:34;22.87;;;12.43;;
3207;SDS011;1616;52.394;9.756;2022-11-20T00:56:03;20.90;;;12.17;;
3207;SDS011;1616;52.394;9.756;2022-11-20T00:58:32;21.33;;;11.63;;
3207;SDS011;1616;52.394;9.756;2022-11-20T01:01:18;25.30;;;13.20;;
3207;SDS011;1616;52.394;9.756;2022-11-20T01:03:55;25.77;;;12.30;;
3207;SDS011;1616;52.394;9.756;2022-11-20T01:06:27;21.60;;;12.70;;
3207;SDS011;1616;52.394;9.756;2022-11-20T01:08:57;25.43;;;13.17;;
3207;SDS011;1616;52.394;9.756;2022-11-20T01:11:25;17.60;;;10.97;;
3207;SDS011;1616;52.394;9.756;2022-11-20T01:13:54;18.77;;;12.30;;
3207;SDS011;1616;52.394;9.756;2022-11-20T01:18:49;20.90;;;12.57;;
3207;SDS011;1616;52.394;9.756;2022-11-20T01:21:18;24.47;;;14.33;;
3207;SDS011;1616;52.394;9.756;2022-11-20T01:23:46;22.60;;;13.57;;
3207;SDS011;1616;52.394;9.756;2022-11-20T01:26:15;26.37;;;13.63;;
3207;SDS011;1616;52.394;9.756;2022-11-20T01:28:43;24.30;;;13.70;;
3207;SDS011;1616;52.394;9.756;2022-11-20T01:31:13;24.57;;;12.20;;
3207;SDS011;1616;52.394;9.756;2022-11-20T01:33:41;26.10;;;12.53;;
3207;SDS011;1616;52.394;9.756;2022-11-20T01:36:08;22.00;;;12.70;;
3207;SDS011;1616;52.394;9.756;2022-11-20T01:38:34;18.43;;;12.60;;
3207;SDS011;1616;52.394;9.756;2022-11-20T01:41:00;24.23;;;13.07;;
3207;SDS011;1616;52.394;9.756;2022-11-20T01:43:26;25.40;;;13.77;;
3207;SDS011;1616;52.394;9.756;2022-11-20T01:48:58;30.87;;;15.60;;
3207;SDS011;1616;52.394;9.756;2022-11-20T01:51:35;27.50;;;15.90;;
3207;SDS011;1616;52.394;9.756;2022-11-20T01:54:10;28.17;;;14.33;;
3207;SDS011;1616;52.394;9.756;2022-11-20T01:56:41;25.43;;;13.50;;
3207;SDS011;1616;52.394;9.756;2022-11-20T01:59:10;23.83;;;13.10;;
3207;SDS011;1616;52.394;9.756;2022-11-20T02:01:38;20.20;;;13.60;;
3207;SDS011;1616;52.394;9.756;2022-11-20T02:04:04;19.50;;;12.37;;
3207;SDS011;1616;52.394;9.756;2022-11-20T02:09:14;19.93;;;11.47;;
3207;SDS011;1616;52.394;9.756;2022-11-20T02:11:41;29.23;;;15.23;;
3207;SDS011;1616;52.394;9.756;2022-11-20T02:14:06;25.90;;;14.17;;
3207;SDS011;1616;52.394;9.756;2022-11-20T02:16:34;24.90;;;14.13;;
3207;SDS011;1616;52.394;9.756;2022-11-20T02:19:44;26.43;;;12.93;;
3207;SDS011;1616;52.394;9.756;2022-11-20T02:22:10;31.37;;;15.60;;
3207;SDS011;1616;52.394;9.756;2022-11-20T02:24:43;27.47;;;14.97;;
3207;SDS011;1616;52.394;9.756;2022-11-20T02:27:11;27.23;;;14.43;;
3207;SDS011;1616;52.394;9.756;2022-11-20T02:29:50;17.87;;;10.87;;
3207;SDS011;1616;52.394;9.756;2022-11-20T02:34:58;26.87;;;12.50;;
3207;SDS011;1616;52.394;9.756;2022-11-20T02:37:32;25.20;;;12.87;;
3207;SDS011;1616;52.394;9.756;2022-11-20T02:40:00;21.10;;;12.20;;
3207;SDS011;1616;52.394;9.756;2022-11-20T02:42:26;17.03;;;11.13;;
3207;SDS011;1616;52.394;9.756;2022-11-20T02:44:51;15.30;;;11.30;;
3207;SDS011;1616;52.394;9.756;2022-11-20T02:47:17;17.27;;;11.03;;
3207;SDS011;1616;52.394;9.756;2022-11-20T02:49:42;19.37;;;11.23;;
3207;SDS011;1616;52.394;9.756;2022-11-20T02:52:08;14.40;;;9.83;;
3207;SDS011;1616;52.394;9.756;2022-11-20T02:54:34;19.53;;;11.87;;
3207;SDS011;1616;52.394;9.756;2022-11-20T02:56:59;19.83;;;12.43;;
3207;SDS011;1616;52.394;9.756;2022-11-20T02:59:25;23.23;;;12.73;;
3207;SDS011;1616;52.394;9.756;2022-11-20T03:01:51;26.67;;;12.70;;
3207;SDS011;1616;52.394;9.756;2022-11-20T03:04:16;28.10;;;13.80;;
3207;SDS011;1616;52.394;9.756;2022-11-20T03:06:42;24.40;;;13.60;;
3207;SDS011;1616;52.394;9.756;2022-11-20T03:09:08;24.70;;;13.37;;
3207;SDS011;1616;52.394;9.756;2022-11-20T03:11:34;22.10;;;14.47;;
3207;SDS011;1616;52.394;9.756;2022-11-20T03:14:03;21.10;;;13.13;;
3207;SDS011;1616;52.394;9.756;2022-11-20T03:16:30;26.97;;;13.83;;
3207;SDS011;1616;52.394;9.756;2022-11-20T03:18:56;21.10;;;13.70;;
3207;SDS011;1616;52.394;9.756;2022-11-20T03:21:22;28.70;;;12.50;;
3207;SDS011;1616;52.394;9.756;2022-11-20T03:23:48;21.23;;;14.30;;
3207;SDS011;1616;52.394;9.756;2022-11-20T03:26:18;24.47;;;13.03;;
3207;SDS011;1616;52.394;9.756;2022-11-20T03:28:47;19.87;;;11.73;;
3207;SDS011;1616;52.394;9.756;2022-11-20T03:31:15;17.13;;;11.20;;
3207;SDS011;1616;52.394;9.756;2022-11-20T03:33:42;19.67;;;10.60;;
3207;SDS011;1616;52.394;9.756;2022-11-20T03:36:09;20.67;;;11.10;;
3207;SDS011;1616;52.394;9.756;2022-11-20T03:38:36;17.30;;;10.70;;
3207;SDS011;1616;52.394;9.756;2022-11-20T03:41:03;28.00;;;11.40;;
3207;SDS011;1616;52.394;9.756;2022-11-20T03:43:31;17.63;;;10.73;;
3207;SDS011;1616;52.394;9.756;2022-11-20T03:45:57;13.53;;;9.70;;
3207;SDS011;1616;52.394;9.756;2022-11-20T03:48:23;16.53;;;9.30;;
3207;SDS011;1616;52.394;9.756;2022-11-20T03:50:51;12.57;;;9.73;;
3207;SDS011;1616;52.394;9.756;2022-11-20T03:53:17;18.73;;;10.33;;
3207;SDS011;1616;52.394;9.756;2022-11-20T03:55:43;21.87;;;10.90;;
3207;SDS011;1616;52.394;9.756;2022-11-20T03:58:09;17.13;;;10.17;;
3207;SDS011;1616;52.394;9.756;2022-11-20T04:00:35;17.67;;;9.07;;
3207;SDS011;1616;52.394;9.756;2022-11-20T04:03:02;14.70;;;8.90;;
3207;SDS011;1616;52.394;9.756;2022-11-20T04:05:28;15.87;;;10.13;;
3207;SDS011;1616;52.394;9.756;2022-11-20T04:07:53;16.53;;;10.20;;
3207;SDS011;1616;52.394;9.756;2022-11-20T04:10:19;17.00;;;10.90;;
3207;SDS011;1616;52.394;9.756;2022-11-20T04:12:46;16.20;;;11.20;;
3207;SDS011;1616;52.394;9.756;2022-11-20T04:15:11;12.47;;;9.57;;
3207;SDS011;1616;52.394;9.756;2022-11-20T04:17:37;18.77;;;11.60;;
3207;SDS011;1616;52.394;9.756;2022-11-20T04:20:03;18.07;;;10.97;;
3207;SDS011;1616;52.394;9.756;2022-11-20T04:22:29;23.80;;;12.30;;
3207;SDS011;1616;52.394;9.756;2022-11-20T04:24:54;21.10;;;11.20;;
3207;SDS011;1616;52.394;9.756;2022-11-20T04:27:20;19.07;;;11.83;;
3207;SDS011;1616;52.394;9.756;2022-11-20T04:29:46;17.80;;;10.07;;
3207;SDS011;1616;52.394;9.756;2022-11-20T04:32:12;17.23;;;9.37;;
3207;SDS011;1616;52.394;9.756;2022-11-20T04:34:37;21.60;;;11.97;;
3207;SDS011;1616;52.394;9.756;2022-11-20T04:37:03;18.30;;;11.03;;
3207;SDS011;1616;52.394;9.756;2022-11-20T04:39:29;17.33;;;10.60;;
3207;SDS011;1616;52.394;9.756;2022-11-20T04:41:54;12.70;;;10.03;;
3207;SDS011;1616;52.394;9.756;2022-11-20T04:44:39;16.80;;;11.50;;
3207;SDS011;1616;52.394;9.756;2022-11-20T04:47:04;20.33;;;12.87;;
3207;SDS011;1616;52.394;9.756;2022-11-20T04:49:30;21.10;;;10.90;;
3207;SDS011;1616;52.394;9.756;2022-11-20T04:51:57;20.30;;;11.27;;
3207;SDS011;1616;52.394;9.756;2022-11-20T04:54:23;16.00;;;10.00;;
3207;SDS011;1616;52.394;9.756;2022-11-20T04:56:49;13.83;;;9.70;;
3207;SDS011;1616;52.394;9.756;2022-11-20T04:59:15;19.57;;;11.00;;
3207;SDS011;1616;52.394;9.756;2022-11-20T05:01:41;15.40;;;9.97;;
3207;SDS011;1616;52.394;9.756;2022-11-20T05:04:07;13.30;;;10.70;;
3207;SDS011;1616;52.394;9.756;2022-11-20T05:06:33;17.07;;;10.27;;
3207;SDS011;1616;52.394;9.756;2022-11-20T05:08:59;19.07;;;11.13;;
3207;SDS011;1616;52.394;9.756;2022-11-20T05:11:25;12.97;;;9.50;;
3207;SDS011;1616;52.394;9.756;2022-11-20T05:13:54;17.80;;;9.63;;
3207;SDS011;1616;52.394;9.756;2022-11-20T05:16:21;12.90;;;9.53;;
3207;SDS011;1616;52.394;9.756;2022-11-20T05:18:49;15.90;;;9.70;;
3207;SDS011;1616;52.394;9.756;2022-11-20T05:21:17;13.97;;;10.60;;
3207;SDS011;1616;52.394;9.756;2022-11-20T05:23:44;17.60;;;10.70;;
3207;SDS011;1616;52.394;9.756;2022-11-20T05:26:15;14.03;;;9.83;;
3207;SDS011;1616;52.394;9.756;2022-11-20T05:28:46;15.13;;;9.17;;
3207;SDS011;1616;52.394;9.756;2022-11-20T05:31:14;11.70;;;9.20;;
3207;SDS011;1616;52.394;9.756;2022-11-20T05:33:44;14.30;;;9.17;;
3207;SDS011;1616;52.394;9.756;2022-11-20T05:36:12;11.60;;;8.23;;
3207;SDS011;1616;52.394;9.756;2022-11-20T05:38:38;13.77;;;9.67;;
3207;SDS011;1616;52.394;9.756;2022-11-20T05:41:09;18.20;;;10.70;;
3207;SDS011;1616;52.394;9.756;2022-11-20T05:43:37;15.53;;;9.47;;
3207;SDS011;1616;52.394;9.756;2022-11-20T05:46:05;14.67;;;9.50;;
3207;SDS011;1616;52.394;9.756;2022-11-20T05:48:32;12.83;;;9.47;;
3207;SDS011;1616;52.394;9.756;2022-11-20T05:50:59;14.27;;;9.27;;
3207;SDS011;1616;52.394;9.756;2022-11-20T05:53:26;14.53;;;10.50;;
3207;SDS011;1616;52.394;9.756;2022-11-20T05:55:59;16.90;;;10.33;;
3207;SDS011;1616;52.394;9.756;2022-11-20T05:58:25;18.00;;;9.90;;
3207;SDS011;1616;52.394;9.756;2022-11-20T06:00:51;15.77;;;9.87;;
3207;SDS011;1616;52.394;9.756;2022-11-20T06:03:17;14.57;;;9.93;;
3207;SDS011;1616;52.394;9.756;2022-11-20T06:05:43;15.90;;;10.20;;
3207;SDS011;1616;52.394;9.756;2022-11-20T06:08:09;13.20;;;9.37;;
3207;SDS011;1616;52.394;9.756;2022-11-20T06:10:35;14.27;;;9.73;;
3207;SDS011;1616;52.394;9.756;2022-11-20T06:13:00;13.87;;;10.37;;
3207;SDS011;1616;52.394;9.756;2022-11-20T06:15:26;14.20;;;9.20;;
3207;SDS011;1616;52.394;9.756;2022-11-20T06:17:55;13.53;;;8.40;;
3207;SDS011;1616;52.394;9.756;2022-11-20T06:20:21;16.73;;;9.30;;
3207;SDS011;1616;52.394;9.756;2022-11-20T06:22:47;14.27;;;9.43;;
3207;SDS011;1616;52.394;9.756;2022-11-20T06:25:13;9.90;;;7.30;;
3207;SDS011;1616;52.394;9.756;2022-11-20T06:27:39;12.70;;;8.10;;
3207;SDS011;1616;52.394;9.756;2022-11-20T06:30:05;14.20;;;7.80;;
3207;SDS011;1616;52.394;9.756;2022-11-20T06:32:31;9.13;;;6.80;;
3207;SDS011;1616;52.394;9.756;2022-11-20T06:34:58;7.07;;;6.30;;
3207;SDS011;1616;52.394;9.756;2022-11-20T06:37:24;9.47;;;7.10;;
3207;SDS011;1616;52.394;9.756;2022-11-20T06:39:49;7.27;;;5.93;;
3207;SDS011;1616;52.394;9.756;2022-11-20T06:42:15;8.40;;;6.60;;
3207;SDS011;1616;52.394;9.756;2022-11-20T06:44:41;12.63;;;8.17;;
3207;SDS011;1616;52.394;9.756;2022-11-20T06:47:06;9.87;;;7.60;;
3207;SDS011;1616;52.394;9.756;2022-11-20T06:49:32;10.10;;;8.00;;
3207;SDS011;1616;52.394;9.756;2022-11-20T06:51:59;8.80;;;7.73;;
3207;SDS011;1616;52.394;9.756;2022-11-20T06:54:25;9.60;;;8.27;;
3207;SDS011;1616;52.394;9.756;2022-11-20T06:56:50;13.30;;;8.90;;
3207;SDS011;1616;52.394;9.756;2022-11-20T06:59:16;14.53;;;7.67;;
3207;SDS011;1616;52.394;9.756;2022-11-20T07:01:43;9.57;;;7.83;;
3207;SDS011;1616;52.394;9.756;2022-11-20T07:04:08;10.70;;;8.17;;
3207;SDS011;1616;52.394;9.756;2022-11-20T07:06:34;13.80;;;8.73;;
3207;SDS011;1616;52.394;9.756;2022-11-20T07:09:00;13.60;;;8.63;;
3207;SDS011;1616;52.394;9.756;2022-11-20T07:11:26;14.87;;;8.53;;
3207;SDS011;1616;52.394;9.756;2022-11-20T07:13:52;13.10;;;8.17;;
3207;SDS011;1616;52.394;9.756;2022-11-20T07:16:18;13.67;;;9.47;;
3207;SDS011;1616;52.394;9.756;2022-11-20T07:18:43;13.60;;;8.93;;
3207;SDS011;1616;52.394;9.756;2022-11-20T07:21:10;11.80;;;8.50;;
3207;SDS011;1616;52.394;9.756;2022-11-20T07:23:36;10.40;;;7.90;;
3207;SDS011;1616;52.394;9.756;2022-11-20T07:26:03;11.80;;;8.47;;
3207;SDS011;1616;52.394;9.756;2022-11-20T07:28:32;14.80;;;8.53;;
3207;SDS011;1616;52.394;9.756;2022-11-20T07:30:58;14.00;;;8.93;;
3207;SDS011;1616;52.394;9.756;2022-11-20T07:33:24;12.03;;;8.37;;
3207;SDS011;1616;52.394;9.756;2022-11-20T07:35:50;11.60;;;9.83;;
3207;SDS011;1616;52.394;9.756;2022-11-20T07:38:17;12.93;;;9.13;;
3207;SDS011;1616;52.394;9.756;2022-11-20T07:40:43;14.70;;;8.50;;
3207;SDS011;1616;52.394;9.756;2022-11-20T07:43:08;9.23;;;8.20;;
3207;SDS011;1616;52.394;9.756;2022-11-20T07:45:34;9.00;;;7.30;;
3207;SDS011;1616;52.394;9.756;2022-11-20T07:48:00;15.20;;;7.20;;
3207;SDS011;1616;52.394;9.756;2022-11-20T07:50:26;10.40;;;7.40;;
3207;SDS011;1616;52.394;9.756;2022-11-20T07:52:52;10.07;;;8.20;;
3207;SDS011;1616;52.394;9.756;2022-11-20T07:55:24;11.90;;;8.40;;
3207;SDS011;1616;52.394;9.756;2022-11-20T07:57:54;12.97;;;8.73;;
3207;SDS011;1616;52.394;9.756;2022-11-20T08:00:21;13.17;;;8.63;;
3207;SDS011;1616;52.394;9.756;2022-11-20T08:02:47;13.87;;;8.33;;
3207;SDS011;1616;52.394;9.756;2022-11-20T08:05:13;14.37;;;7.77;;
3207;SDS011;1616;52.394;9.756;2022-11-20T08:07:39;9.90;;;8.67;;
3207;SDS011;1616;52.394;9.756;2022-11-20T08:10:07;8.30;;;7.17;;
3207;SDS011;1616;52.394;9.756;2022-11-20T08:12:34;8.93;;;7.87;;
3207;SDS011;1616;52.394;9.756;2022-11-20T08:15:19;11.23;;;7.77;;
3207;SDS011;1616;52.394;9.756;2022-11-20T08:17:44;10.87;;;7.67;;
3207;SDS011;1616;52.394;9.756;2022-11-20T08:20:10;11.63;;;8.63;;
3207;SDS011;1616;52.394;9.756;2022-11-20T08:22:36;9.53;;;7.23;;
3207;SDS011;1616;52.394;9.756;2022-11-20T08:25:02;15.17;;;8.40;;
3207;SDS011;1616;52.394;9.756;2022-11-20T08:27:28;10.93;;;7.77;;
3207;SDS011;1616;52.394;9.756;2022-11-20T08:29:54;8.97;;;8.07;;
3207;SDS011;1616;52.394;9.756;2022-11-20T08:32:20;9.43;;;7.60;;
3207;SDS011;1616;52.394;9.756;2022-11-20T08:34:45;10.53;;;8.13;;
3207;SDS011;1616;52.394;9.756;2022-11-20T08:37:11;11.27;;;8.10;;
3207;SDS011;1616;52.394;9.756;2022-11-20T08:39:37;9.60;;;7.20;;
3207;SDS011;1616;52.394;9.756;2022-11-20T08:42:06;8.10;;;6.27;;
3207;SDS011;1616;52.394;9.756;2022-11-20T08:44:32;9.90;;;7.70;;
3207;SDS011;1616;52.394;9.756;2022-11-20T08:46:57;7.83;;;6.93;;
3207;SDS011;1616;52.394;9.756;2022-11-20T08:49:23;8.20;;;5.97;;
3207;SDS011;1616;52.394;9.756;2022-11-20T08:51:49;8.33;;;7.33;;
3207;SDS011;1616;52.394;9.756;2022-11-20T08:54:18;11.23;;;7.83;;
3207;SDS011;1616;52.394;9.756;2022-11-20T08:56:47;8.70;;;7.90;;
3207;SDS011;1616;52.394;9.756;2022-11-20T08:59:13;13.47;;;8.73;;
3207;SDS011;1616;52.394;9.756;2022-11-20T09:01:38;8.27;;;7.47;;
3207;SDS011;1616;52.394;9.756;2022-11-20T09:04:04;9.13;;;6.60;;
3207;SDS011;1616;52.394;9.756;2022-11-20T09:06:30;12.90;;;7.90;;
3207;SDS011;1616;52.394;9.756;2022-11-20T09:08:56;10.33;;;8.20;;
3207;SDS011;1616;52.394;9.756;2022-11-20T09:11:22;8.13;;;7.43;;
3207;SDS011;1616;52.394;9.756;2022-11-20T09:13:47;9.63;;;8.17;;
3207;SDS011;1616;52.394;9.756;2022-11-20T09:16:13;11.73;;;9.87;;
3207;SDS011;1616;52.394;9.756;2022-11-20T09:18:39;12.57;;;10.20;;
3207;SDS011;1616;52.394;9.756;2022-11-20T09:21:06;11.43;;;8.20;;
3207;SDS011;1616;52.394;9.756;2022-11-20T09:23:38;10.53;;;8.20;;
3207;SDS011;1616;52.394;9.756;2022-11-20T09:26:04;9.03;;;7.83;;
3207;SDS011;1616;52.394;9.756;2022-11-20T09:28:32;8.97;;;7.83;;
3207;SDS011;1616;52.394;9.756;2022-11-20T09:30:58;10.83;;;8.40;;
3207;SDS011;1616;52.394;9.756;2022-11-20T09:33:24;9.40;;;6.70;;
3207;SDS011;1616;52.394;9.756;2022-11-20T09:35:50;10.33;;;8.57;;
3207;SDS011;1616;52.394;9.756;2022-11-20T09:38:16;10.30;;;8.80;;
3207;SDS011;1616;52.394;9.756;2022-11-20T09:40:56;10.10;;;8.63;;
3207;SDS011;1616;52.394;9.756;2022-11-20T09:54:17;8.30;;;7.60;;
3207;SDS011;1616;52.394;9.756;2022-11-20T09:56:50;9.33;;;8.43;;
3207;SDS011;1616;52.394;9.756;2022-11-20T09:59:29;8.73;;;8.07;;
3207;SDS011;1616;52.394;9.756;2022-11-20T10:01:55;9.47;;;8.67;;
3207;SDS011;1616;52.394;9.756;2022-11-20T10:04:22;8.23;;;7.67;;
3207;SDS011;1616;52.394;9.756;2022-11-20T10:07:06;8.17;;;7.47;;
3207;SDS011;1616;52.394;9.756;2022-11-20T10:09:50;7.63;;;7.00;;
3207;SDS011;1616;52.394;9.756;2022-11-20T10:27:14;7.00;;;6.30;;
3207;SDS011;1616;52.394;9.756;2022-11-20T10:32:36;5.53;;;5.13;;
3207;SDS011;1616;52.394;9.756;2022-11-20T10:38:00;4.67;;;4.37;;
3207;SDS011;1616;52.394;9.756;2022-11-20T10:43:16;6.63;;;5.80;;
3207;SDS011;1616;52.394;9.756;2022-11-20T10:45:56;5.43;;;5.13;;
3207;SDS011;1616;52.394;9.756;2022-11-20T10:48:28;5.83;;;5.37;;
3207;SDS011;1616;52.394;9.756;2022-11-20T10:53:53;5.27;;;4.97;;
3207;SDS011;1616;52.394;9.756;2022-11-20T10:56:51;6.50;;;6.03;;
3207;SDS011;1616;52.394;9.756;2022-11-20T11:02:29;7.73;;;4.17;;
3207;SDS011;1616;52.394;9.756;2022-11-20T11:04:54;6.70;;;5.13;;
3207;SDS011;1616;52.394;9.756;2022-11-20T11:07:30;6.80;;;6.10;;
3207;SDS011;1616;52.394;9.756;2022-11-20T11:12:47;6.40;;;5.80;;
3207;SDS011;1616;52.394;9.756;2022-11-20T11:15:59;6.53;;;6.00;;
3207;SDS011;1616;52.394;9.756;2022-11-20T11:18:04;5.53;;;5.20;;
3207;SDS011;1616;52.394;9.756;2022-11-20T11:20:30;9.60;;;8.23;;
3207;SDS011;1616;52.394;9.756;2022-11-20T11:22:57;7.03;;;6.33;;
3207;SDS011;1616;52.394;9.756;2022-11-20T11:28:01;44.13;;;21.40;;
3207;SDS011;1616;52.394;9.756;2022-11-20T11:30:43;19.30;;;10.77;;
3207;SDS011;1616;52.394;9.756;2022-11-20T11:33:11;11.00;;;8.30;;
3207;SDS011;1616;52.394;9.756;2022-11-20T11:35:45;7.10;;;6.07;;
3207;SDS011;1616;52.394;9.756;2022-11-20T11:38:44;10.23;;;8.17;;
3207;SDS011;1616;52.394;9.756;2022-11-20T11:41:13;7.53;;;6.83;;
3207;SDS011;1616;52.394;9.756;2022-11-20T11:43:53;7.23;;;6.10;;
3207;SDS011;1616;52.394;9.756;2022-11-20T11:46:41;7.00;;;6.30;;
3207;SDS011;1616;52.394;9.756;2022-11-20T11:49:18;6.53;;;5.93;;
3207;SDS011;1616;52.394;9.756;2022-11-20T11:51:47;8.47;;;6.27;;
3207;SDS011;1616;52.394;9.756;2022-11-20T12:11:58;7.67;;;6.80;;
3207;SDS011;1616;52.394;9.756;2022-11-20T12:14:01;7.93;;;7.10;;
3207;SDS011;1616;52.394;9.756;2022-11-20T12:16:35;7.63;;;6.93;;
3207;SDS011;1616;52.394;9.756;2022-11-20T12:19:04;9.90;;;8.90;;
3207;SDS011;1616;52.394;9.756;2022-11-20T12:27:00;8.50;;;7.60;;
3207;SDS011;1616;52.394;9.756;2022-11-20T12:43:55;11.47;;;8.63;;
3207;SDS011;1616;52.394;9.756;2022-11-20T12:47:19;10.10;;;8.50;;
3207;SDS011;1616;52.394;9.756;2022-11-20T12:58:03;7.90;;;7.20;;
3207;SDS011;1616;52.394;9.756;2022-11-20T13:00:44;11.37;;;7.40;;
3207;SDS011;1616;52.394;9.756;2022-11-20T13:06:05;7.17;;;6.57;;
3207;SDS011;1616;52.394;9.756;2022-11-20T13:09:02;9.87;;;7.43;;
3207;SDS011;1616;52.394;9.756;2022-11-20T13:14:23;9.10;;;7.57;;
3207;SDS011;1616;52.394;9.756;2022-11-20T13:19:37;9.63;;;7.20;;
3207;SDS011;1616;52.394;9.756;2022-11-20T13:22:04;12.00;;;7.20;;
3207;SDS011;1616;52.394;9.756;2022-11-20T13:24:30;8.27;;;7.20;;
3207;SDS011;1616;52.394;9.756;2022-11-20T13:27:01;10.57;;;7.77;;
3207;SDS011;1616;52.394;9.756;2022-11-20T13:29:30;8.00;;;7.20;;
3207;SDS011;1616;52.394;9.756;2022-11-20T13:32:03;9.27;;;7.83;;
3207;SDS011;1616;52.394;9.756;2022-11-20T13:34:29;9.10;;;7.87;;
3207;SDS011;1616;52.394;9.756;2022-11-20T13:36:57;9.77;;;7.60;;
3207;SDS011;1616;52.394;9.756;2022-11-20T13:39:35;11.17;;;8.87;;
3207;SDS011;1616;52.394;9.756;2022-11-20T13:42:03;9.90;;;7.47;;
3207;SDS011;1616;52.394;9.756;2022-11-20T13:44:50;10.53;;;8.27;;
3207;SDS011;1616;52.394;9.756;2022-11-20T13:47:25;10.10;;;8.57;;
3207;SDS011;1616;52.394;9.756;2022-11-20T13:49:52;11.13;;;8.90;;
3207;SDS011;1616;52.394;9.756;2022-11-20T14:00:21;27.90;;;4.80;;
3207;SDS011;1616;52.394;9.756;2022-11-20T14:03:09;11.63;;;5.87;;
3207;SDS011;1616;52.394;9.756;2022-11-20T14:05:40;8.33;;;7.20;;
3207;SDS011;1616;52.394;9.756;2022-11-20T14:08:20;10.73;;;8.50;;
3207;SDS011;1616;52.394;9.756;2022-11-20T14:10:50;9.23;;;7.80;;
3207;SDS011;1616;52.394;9.756;2022-11-20T14:13:19;13.53;;;9.50;;
3207;SDS011;1616;52.394;9.756;2022-11-20T14:15:45;12.10;;;10.10;;
3207;SDS011;1616;52.394;9.756;2022-11-20T14:18:15;13.07;;;9.90;;
3207;SDS011;1616;52.394;9.756;2022-11-20T14:20:45;13.87;;;10.50;;
3207;SDS011;1616;52.394;9.756;2022-11-20T14:23:11;17.07;;;11.13;;
3207;SDS011;1616;52.394;9.756;2022-11-20T14:25:41;16.97;;;10.80;;
3207;SDS011;1616;52.394;9.756;2022-11-20T14:28:10;18.17;;;13.03;;
3207;SDS011;1616;52.394;9.756;2022-11-20T14:30:43;14.67;;;11.07;;
3207;SDS011;1616;52.394;9.756;2022-11-20T14:33:13;12.77;;;9.77;;
3207;SDS011;1616;52.394;9.756;2022-11-20T14:35:43;13.70;;;8.97;;
3207;SDS011;1616;52.394;9.756;2022-11-20T14:38:14;13.50;;;9.23;;
3207;SDS011;1616;52.394;9.756;2022-11-20T14:40:42;12.73;;;9.43;;
3207;SDS011;1616;52.394;9.756;2022-11-20T14:43:24;13.10;;;9.80;;
3207;SDS011;1616;52.394;9.756;2022-11-20T14:46:02;13.83;;;9.30;;
3207;SDS011;1616;52.394;9.756;2022-11-20T14:48:40;11.97;;;9.87;;
3207;SDS011;1616;52.394;9.756;2022-11-20T14:51:29;13.50;;;9.70;;
3207;SDS011;1616;52.394;9.756;2022-11-20T14:54:10;10.73;;;9.50;;
3207;SDS011;1616;52.394;9.756;2022-11-20T14:56:40;11.30;;;9.10;;
3207;SDS011;1616;52.394;9.756;2022-11-20T14:59:06;16.00;;;10.57;;
3207;SDS011;1616;52.394;9.756;2022-11-20T15:01:34;11.50;;;9.47;;
3207;SDS011;1616;52.394;9.756;2022-11-20T15:04:08;19.40;;;11.97;;
3207;SDS011;1616;52.394;9.756;2022-11-20T15:06:37;19.77;;;11.00;;
3207;SDS011;1616;52.394;9.756;2022-11-20T15:09:14;19.10;;;10.90;;
3207;SDS011;1616;52.394;9.756;2022-11-20T15:11:40;14.33;;;9.70;;
3207;SDS011;1616;52.394;9.756;2022-11-20T15:14:21;14.43;;;9.53;;
3207;SDS011;1616;52.394;9.756;2022-11-20T15:16:47;20.37;;;12.97;;
3207;SDS011;1616;52.394;9.756;2022-11-20T15:19:17;15.93;;;11.70;;
3207;SDS011;1616;52.394;9.756;2022-11-20T15:21:45;18.70;;;11.30;;
3207;SDS011;1616;52.394;9.756;2022-11-20T15:24:11;19.03;;;12.17;;
3207;SDS011;1616;52.394;9.756;2022-11-20T15:26:36;15.77;;;11.30;;
3207;SDS011;1616;52.394;9.756;2022-11-20T15:29:09;23.13;;;12.10;;
3207;SDS011;1616;52.394;9.756;2022-11-20T15:31:36;15.50;;;10.13;;
3207;SDS011;1616;52.394;9.756;2022-11-20T15:34:10;16.93;;;11.10;;
3207;SDS011;1616;52.394;9.756;2022-11-20T15:36:37;16.33;;;10.60;;
3207;SDS011;1616;52.394;9.756;2022-11-20T15:39:03;19.50;;;12.50;;
3207;SDS011;1616;52.394;9.756;2022-11-20T15:41:29;19.07;;;11.10;;
3207;SDS011;1616;52.394;9.756;2022-11-20T15:43:55;14.80;;;11.10;;
3207;SDS011;1616;52.394;9.756;2022-11-20T15:46:25;18.73;;;11.27;;
3207;SDS011;1616;52.394;9.756;2022-11-20T15:48:56;13.93;;;10.43;;
3207;SDS011;1616;52.394;9.756;2022-11-20T15:51:35;15.23;;;10.90;;
3207;SDS011;1616;52.394;9.756;2022-11-20T15:56:38;39.20;;;17.13;;
3207;SDS011;1616;52.394;9.756;2022-11-20T15:59:05;31.47;;;15.17;;
3207;SDS011;1616;52.394;9.756;2022-11-20T16:01:31;37.20;;;17.57;;
3207;SDS011;1616;52.394;9.756;2022-11-20T16:03:57;63.43;;;37.47;;
3207;SDS011;1616;52.394;9.756;2022-11-20T16:06:22;55.03;;;30.60;;
3207;SDS011;1616;52.394;9.756;2022-11-20T16:08:48;33.53;;;19.57;;
3207;SDS011;1616;52.394;9.756;2022-11-20T16:11:15;23.73;;;14.00;;
3207;SDS011;1616;52.394;9.756;2022-11-20T16:13:42;27.67;;;16.07;;
3207;SDS011;1616;52.394;9.756;2022-11-20T16:16:28;24.37;;;14.00;;
3207;SDS011;1616;52.394;9.756;2022-11-20T16:18:57;25.00;;;14.67;;
3207;SDS011;1616;52.394;9.756;2022-11-20T16:21:25;34.90;;;16.63;;
3207;SDS011;1616;52.394;9.756;2022-11-20T16:23:58;28.30;;;16.30;;
3207;SDS011;1616;52.394;9.756;2022-11-20T16:26:24;29.17;;;14.63;;
3207;SDS011;1616;52.394;9.756;2022-11-20T16:28:50;27.63;;;15.63;;
3207;SDS011;1616;52.394;9.756;2022-11-20T16:31:16;25.63;;;13.97;;
3207;SDS011;1616;52.394;9.756;2022-11-20T16:33:48;25.27;;;14.67;;
3207;SDS011;1616;52.394;9.756;2022-11-20T16:36:15;20.43;;;11.13;;
3207;SDS011;1616;52.394;9.756;2022-11-20T16:38:42;24.57;;;13.40;;
3207;SDS011;1616;52.394;9.756;2022-11-20T16:41:08;21.80;;;12.87;;
3207;SDS011;1616;52.394;9.756;2022-11-20T16:43:48;17.97;;;12.03;;
3207;SDS011;1616;52.394;9.756;2022-11-20T16:46:16;20.10;;;12.00;;
3207;SDS011;1616;52.394;9.756;2022-11-20T16:48:43;22.97;;;12.27;;
3207;SDS011;1616;52.394;9.756;2022-11-20T16:51:09;38.93;;;23.90;;
3207;SDS011;1616;52.394;9.756;2022-11-20T16:53:37;20.87;;;13.87;;
3207;SDS011;1616;52.394;9.756;2022-11-20T16:56:13;29.63;;;16.43;;
3207;SDS011;1616;52.394;9.756;2022-11-20T16:58:46;23.03;;;14.43;;
3207;SDS011;1616;52.394;9.756;2022-11-20T17:01:14;24.00;;;13.43;;
3207;SDS011;1616;52.394;9.756;2022-11-20T17:03:46;25.90;;;15.77;;
3207;SDS011;1616;52.394;9.756;2022-11-20T17:06:21;21.60;;;13.40;;
3207;SDS011;1616;52.394;9.756;2022-11-20T17:08:49;25.10;;;14.50;;
3207;SDS011;1616;52.394;9.756;2022-11-20T17:11:16;20.60;;;13.43;;